sensor_id;sensor_type;location;lat;lon;timestamp;temperature;humidity
20337;DHT22;10326;53.660;10.200;2023-03-30T00:00:52;12.90;82.30
20337;DHT22;10326;53.660;10.200;2023-03-30T00:03:20;12.90;82.30
20337;DHT22;10326;53.660;10.200;2023-03-30T00:05:48;12.90;82.30
20337;DHT22;10326;53.660;10.200;2023-03-30T00:08:16;12.90;82.50
20337;DHT22;10326;53.660;10.200;2023-03-30T00:10:46;12.90;82.50
20337;DHT22;10326;53.660;10.200;2023-03-30T00:13:13;12.90;82.70
20337;DHT22;10326;53.660;10.200;2023-03-30T00:15:41;12.90;82.60
20337;DHT22;10326;53.660;10.200;2023-03-30T00:18:10;12.90;82.70
20337;DHT22;10326;53.660;10.200;2023-03-30T00:20:37;12.90;82.70
20337;DHT22;10326;53.660;10.200;2023-03-30T00:23:07;12.90;82.70
20337;DHT22;10326;53.660;10.200;2023-03-30T00:25:34;12.90;82.80
20337;DHT22;10326;53.660;10.200;2023-03-30T00:28:04;12.90;82.80
20337;DHT22;10326;53.660;10.200;2023-03-30T00:30:31;12.90;82.80
20337;DHT22;10326;53.660;10.200;2023-03-30T00:32:59;12.90;82.70
20337;DHT22;10326;53.660;10.200;2023-03-30T00:35:26;12.90;82.80
20337;DHT22;10326;53.660;10.200;2023-03-30T00:37:55;12.90;83.00
20337;DHT22;10326;53.660;10.200;2023-03-30T00:40:22;12.90;82.90
20337;DHT22;10326;53.660;10.200;2023-03-30T00:42:50;12.90;83.00
20337;DHT22;10326;53.660;10.200;2023-03-30T00:45:23;13.00;83.20
20337;DHT22;10326;53.660;10.200;2023-03-30T00:48:00;13.00;83.40
20337;DHT22;10326;53.660;10.200;2023-03-30T00:50:32;13.00;83.40
20337;DHT22;10326;53.660;10.200;2023-03-30T00:53:06;13.00;83.50
20337;DHT22;10326;53.660;10.200;2023-03-30T00:55:37;13.00;83.50
20337;DHT22;10326;53.660;10.200;2023-03-30T00:58:07;13.00;83.40
20337;DHT22;10326;53.660;10.200;2023-03-30T01:00:37;13.00;83.50
20337;DHT22;10326;53.660;10.200;2023-03-30T01:03:09;13.00;83.70
20337;DHT22;10326;53.660;10.200;2023-03-30T01:05:42;13.00;83.70
20337;DHT22;10326;53.660;10.200;2023-03-30T01:08:12;13.00;83.60
20337;DHT22;10326;53.660;10.200;2023-03-30T01:10:41;13.00;83.70
20337;DHT22;10326;53.660;10.200;2023-03-30T01:13:10;13.00;83.70
20337;DHT22;10326;53.660;10.200;2023-03-30T01:15:53;13.00;83.70
20337;DHT22;10326;53.660;10.200;2023-03-30T01:18:33;13.10;84.30
20337;DHT22;10326;53.660;10.200;2023-03-30T01:21:43;13.00;83.90
20337;DHT22;10326;53.660;10.200;2023-03-30T01:28:28;13.10;84.30
20337;DHT22;10326;53.660;10.200;2023-03-30T01:34:52;13.10;84.40
20337;DHT22;10326;53.660;10.200;2023-03-30T01:38:00;13.10;84.40
20337;DHT22;10326;53.660;10.200;2023-03-30T01:41:00;13.10;84.40
20337;DHT22;10326;53.660;10.200;2023-03-30T01:43:38;13.10;84.10
20337;DHT22;10326;53.660;10.200;2023-03-30T01:46:18;13.10;84.00
20337;DHT22;10326;53.660;10.200;2023-03-30T01:48:56;13.10;84.20
20337;DHT22;10326;53.660;10.200;2023-03-30T01:51:30;13.10;84.30
20337;DHT22;10326;53.660;10.200;2023-03-30T01:54:04;13.10;84.20
20337;DHT22;10326;53.660;10.200;2023-03-30T01:56:39;13.10;84.40
20337;DHT22;10326;53.660;10.200;2023-03-30T01:59:10;13.10;84.40
20337;DHT22;10326;53.660;10.200;2023-03-30T02:01:40;13.10;84.30
20337;DHT22;10326;53.660;10.200;2023-03-30T02:04:16;13.10;84.20
20337;DHT22;10326;53.660;10.200;2023-03-30T02:06:49;13.10;84.30
20337;DHT22;10326;53.660;10.200;2023-03-30T02:09:20;13.10;84.30
20337;DHT22;10326;53.660;10.200;2023-03-30T02:11:53;13.10;84.40
20337;DHT22;10326;53.660;10.200;2023-03-30T02:14:23;13.20;84.50
20337;DHT22;10326;53.660;10.200;2023-03-30T02:16:56;13.20;84.70
20337;DHT22;10326;53.660;10.200;2023-03-30T02:19:26;13.20;84.60
20337;DHT22;10326;53.660;10.200;2023-03-30T02:21:54;13.20;84.60
20337;DHT22;10326;53.660;10.200;2023-03-30T02:24:24;13.20;84.60
20337;DHT22;10326;53.660;10.200;2023-03-30T02:26:55;13.20;84.80
20337;DHT22;10326;53.660;10.200;2023-03-30T02:29:22;13.20;84.80
20337;DHT22;10326;53.660;10.200;2023-03-30T02:31:53;13.20;84.80
20337;DHT22;10326;53.660;10.200;2023-03-30T02:34:34;13.20;85.00
20337;DHT22;10326;53.660;10.200;2023-03-30T02:37:30;13.20;85.10
20337;DHT22;10326;53.660;10.200;2023-03-30T02:40:13;13.20;85.30
20337;DHT22;10326;53.660;10.200;2023-03-30T02:42:59;13.20;85.20
20337;DHT22;10326;53.660;10.200;2023-03-30T02:45:39;13.20;85.20
20337;DHT22;10326;53.660;10.200;2023-03-30T02:48:17;13.20;85.00
20337;DHT22;10326;53.660;10.200;2023-03-30T02:50:56;13.20;85.10
20337;DHT22;10326;53.660;10.200;2023-03-30T02:53:57;13.20;85.20
20337;DHT22;10326;53.660;10.200;2023-03-30T02:56:54;13.20;85.10
20337;DHT22;10326;53.660;10.200;2023-03-30T02:59:29;13.20;85.30
20337;DHT22;10326;53.660;10.200;2023-03-30T03:02:01;13.10;85.10
20337;DHT22;10326;53.660;10.200;2023-03-30T03:04:32;13.10;85.00
20337;DHT22;10326;53.660;10.200;2023-03-30T03:07:18;13.10;85.10
20337;DHT22;10326;53.660;10.200;2023-03-30T03:09:47;13.10;85.10
20337;DHT22;10326;53.660;10.200;2023-03-30T03:12:15;13.10;85.10
20337;DHT22;10326;53.660;10.200;2023-03-30T03:14:44;13.10;85.20
20337;DHT22;10326;53.660;10.200;2023-03-30T03:17:11;13.10;85.40
20337;DHT22;10326;53.660;10.200;2023-03-30T03:19:47;13.10;85.40
20337;DHT22;10326;53.660;10.200;2023-03-30T03:22:16;13.10;85.40
20337;DHT22;10326;53.660;10.200;2023-03-30T03:24:44;13.10;85.40
20337;DHT22;10326;53.660;10.200;2023-03-30T03:27:28;13.10;85.60
20337;DHT22;10326;53.660;10.200;2023-03-30T03:30:09;13.10;85.60
20337;DHT22;10326;53.660;10.200;2023-03-30T03:32:44;13.10;85.70
20337;DHT22;10326;53.660;10.200;2023-03-30T03:35:12;13.10;85.60
20337;DHT22;10326;53.660;10.200;2023-03-30T03:37:39;13.10;85.70
20337;DHT22;10326;53.660;10.200;2023-03-30T03:40:07;13.10;85.70
20337;DHT22;10326;53.660;10.200;2023-03-30T03:42:36;13.10;85.70
20337;DHT22;10326;53.660;10.200;2023-03-30T03:45:10;13.10;85.50
20337;DHT22;10326;53.660;10.200;2023-03-30T03:47:50;13.10;85.50
20337;DHT22;10326;53.660;10.200;2023-03-30T03:50:23;13.10;85.40
20337;DHT22;10326;53.660;10.200;2023-03-30T03:52:51;13.10;85.40
20337;DHT22;10326;53.660;10.200;2023-03-30T03:55:18;13.10;85.40
20337;DHT22;10326;53.660;10.200;2023-03-30T03:57:46;13.00;85.40
20337;DHT22;10326;53.660;10.200;2023-03-30T04:00:15;13.00;85.40
20337;DHT22;10326;53.660;10.200;2023-03-30T04:02:48;13.00;85.50
20337;DHT22;10326;53.660;10.200;2023-03-30T04:05:16;13.00;85.30
20337;DHT22;10326;53.660;10.200;2023-03-30T04:07:43;13.00;85.30
20337;DHT22;10326;53.660;10.200;2023-03-30T04:10:13;13.00;85.30
20337;DHT22;10326;53.660;10.200;2023-03-30T04:13:03;13.00;85.40
20337;DHT22;10326;53.660;10.200;2023-03-30T04:15:51;13.00;85.30
20337;DHT22;10326;53.660;10.200;2023-03-30T04:18:36;12.90;85.20
20337;DHT22;10326;53.660;10.200;2023-03-30T04:21:25;12.90;85.10
20337;DHT22;10326;53.660;10.200;2023-03-30T04:24:23;12.90;85.30
20337;DHT22;10326;53.660;10.200;2023-03-30T04:27:15;12.90;85.30
20337;DHT22;10326;53.660;10.200;2023-03-30T04:29:58;12.90;85.30
20337;DHT22;10326;53.660;10.200;2023-03-30T04:32:46;12.90;85.50
20337;DHT22;10326;53.660;10.200;2023-03-30T04:35:45;12.90;85.60
20337;DHT22;10326;53.660;10.200;2023-03-30T04:38:48;12.90;85.60
20337;DHT22;10326;53.660;10.200;2023-03-30T04:41:49;12.90;85.80
20337;DHT22;10326;53.660;10.200;2023-03-30T04:44:35;12.90;85.70
20337;DHT22;10326;53.660;10.200;2023-03-30T04:47:38;12.90;85.80
20337;DHT22;10326;53.660;10.200;2023-03-30T04:50:24;12.90;85.90
20337;DHT22;10326;53.660;10.200;2023-03-30T04:53:11;12.90;86.00
20337;DHT22;10326;53.660;10.200;2023-03-30T04:55:58;12.90;86.00
20337;DHT22;10326;53.660;10.200;2023-03-30T04:58:26;12.90;85.90
20337;DHT22;10326;53.660;10.200;2023-03-30T05:01:22;12.90;86.00
20337;DHT22;10326;53.660;10.200;2023-03-30T05:04:04;12.90;85.90
20337;DHT22;10326;53.660;10.200;2023-03-30T05:06:49;12.90;85.80
20337;DHT22;10326;53.660;10.200;2023-03-30T05:09:30;12.90;85.80
20337;DHT22;10326;53.660;10.200;2023-03-30T05:12:30;12.90;85.80
20337;DHT22;10326;53.660;10.200;2023-03-30T05:15:06;12.90;85.80
20337;DHT22;10326;53.660;10.200;2023-03-30T05:18:09;12.90;85.90
20337;DHT22;10326;53.660;10.200;2023-03-30T05:21:00;12.90;85.90
20337;DHT22;10326;53.660;10.200;2023-03-30T05:23:47;12.90;85.90
20337;DHT22;10326;53.660;10.200;2023-03-30T05:26:33;12.90;86.00
20337;DHT22;10326;53.660;10.200;2023-03-30T05:29:26;12.90;85.90
20337;DHT22;10326;53.660;10.200;2023-03-30T05:32:14;12.90;85.90
20337;DHT22;10326;53.660;10.200;2023-03-30T05:34:42;12.90;86.10
20337;DHT22;10326;53.660;10.200;2023-03-30T05:37:19;12.90;86.10
20337;DHT22;10326;53.660;10.200;2023-03-30T05:40:09;12.90;86.10
20337;DHT22;10326;53.660;10.200;2023-03-30T05:42:56;12.90;86.20
20337;DHT22;10326;53.660;10.200;2023-03-30T05:45:52;12.90;86.20
20337;DHT22;10326;53.660;10.200;2023-03-30T05:48:30;12.90;86.20
20337;DHT22;10326;53.660;10.200;2023-03-30T05:51:21;12.90;86.30
20337;DHT22;10326;53.660;10.200;2023-03-30T05:54:11;12.90;86.40
20337;DHT22;10326;53.660;10.200;2023-03-30T05:56:49;12.90;86.50
20337;DHT22;10326;53.660;10.200;2023-03-30T05:59:27;13.00;86.70
20337;DHT22;10326;53.660;10.200;2023-03-30T06:02:13;13.00;86.70
20337;DHT22;10326;53.660;10.200;2023-03-30T06:04:43;13.00;86.60
20337;DHT22;10326;53.660;10.200;2023-03-30T06:07:10;13.00;86.70
20337;DHT22;10326;53.660;10.200;2023-03-30T06:09:38;13.00;86.70
20337;DHT22;10326;53.660;10.200;2023-03-30T06:12:19;13.00;86.80
20337;DHT22;10326;53.660;10.200;2023-03-30T06:14:46;13.00;86.80
20337;DHT22;10326;53.660;10.200;2023-03-30T06:17:33;13.00;86.80
20337;DHT22;10326;53.660;10.200;2023-03-30T06:20:02;13.10;86.90
20337;DHT22;10326;53.660;10.200;2023-03-30T06:22:34;13.10;87.00
20337;DHT22;10326;53.660;10.200;2023-03-30T06:25:10;13.00;86.90
20337;DHT22;10326;53.660;10.200;2023-03-30T06:27:40;13.10;87.00
20337;DHT22;10326;53.660;10.200;2023-03-30T06:30:08;13.10;87.30
20337;DHT22;10326;53.660;10.200;2023-03-30T06:32:39;13.10;87.50
20337;DHT22;10326;53.660;10.200;2023-03-30T06:35:18;13.10;87.60
20337;DHT22;10326;53.660;10.200;2023-03-30T06:37:46;13.10;87.70
20337;DHT22;10326;53.660;10.200;2023-03-30T06:40:13;13.10;87.80
20337;DHT22;10326;53.660;10.200;2023-03-30T06:42:47;13.10;88.00
20337;DHT22;10326;53.660;10.200;2023-03-30T06:45:34;13.20;88.20
20337;DHT22;10326;53.660;10.200;2023-03-30T06:48:02;13.10;88.10
20337;DHT22;10326;53.660;10.200;2023-03-30T06:50:33;13.20;88.30
20337;DHT22;10326;53.660;10.200;2023-03-30T06:53:03;13.20;88.30
20337;DHT22;10326;53.660;10.200;2023-03-30T06:55:39;13.20;88.50
20337;DHT22;10326;53.660;10.200;2023-03-30T06:58:10;13.30;88.80
20337;DHT22;10326;53.660;10.200;2023-03-30T07:00:37;13.30;88.80
20337;DHT22;10326;53.660;10.200;2023-03-30T07:03:25;13.30;88.80
20337;DHT22;10326;53.660;10.200;2023-03-30T07:06:09;13.40;88.80
20337;DHT22;10326;53.660;10.200;2023-03-30T07:08:38;13.40;88.80
20337;DHT22;10326;53.660;10.200;2023-03-30T07:11:08;13.40;88.90
20337;DHT22;10326;53.660;10.200;2023-03-30T07:13:39;13.50;89.20
20337;DHT22;10326;53.660;10.200;2023-03-30T07:16:08;13.50;89.40
20337;DHT22;10326;53.660;10.200;2023-03-30T07:18:35;13.60;89.70
20337;DHT22;10326;53.660;10.200;2023-03-30T07:21:03;13.60;89.60
20337;DHT22;10326;53.660;10.200;2023-03-30T07:23:36;13.70;89.80
20337;DHT22;10326;53.660;10.200;2023-03-30T07:26:05;13.70;89.80
20337;DHT22;10326;53.660;10.200;2023-03-30T07:28:54;13.70;90.00
20337;DHT22;10326;53.660;10.200;2023-03-30T07:31:23;13.80;90.00
20337;DHT22;10326;53.660;10.200;2023-03-30T07:33:50;13.90;90.00
20337;DHT22;10326;53.660;10.200;2023-03-30T07:36:22;13.90;90.00
20337;DHT22;10326;53.660;10.200;2023-03-30T07:38:49;14.00;90.10
20337;DHT22;10326;53.660;10.200;2023-03-30T07:41:17;14.00;90.10
20337;DHT22;10326;53.660;10.200;2023-03-30T07:43:49;14.00;90.10
20337;DHT22;10326;53.660;10.200;2023-03-30T07:46:18;14.10;90.10
20337;DHT22;10326;53.660;10.200;2023-03-30T07:48:50;14.10;90.10
20337;DHT22;10326;53.660;10.200;2023-03-30T07:51:18;14.10;90.00
20337;DHT22;10326;53.660;10.200;2023-03-30T07:53:58;14.20;90.10
20337;DHT22;10326;53.660;10.200;2023-03-30T07:56:36;14.20;90.10
20337;DHT22;10326;53.660;10.200;2023-03-30T07:59:05;14.30;90.20
20337;DHT22;10326;53.660;10.200;2023-03-30T08:01:36;14.30;90.20
20337;DHT22;10326;53.660;10.200;2023-03-30T08:04:07;14.30;90.20
20337;DHT22;10326;53.660;10.200;2023-03-30T08:06:35;14.40;90.20
20337;DHT22;10326;53.660;10.200;2023-03-30T08:09:03;14.40;90.20
20337;DHT22;10326;53.660;10.200;2023-03-30T08:11:31;14.40;90.20
20337;DHT22;10326;53.660;10.200;2023-03-30T08:14:00;14.50;90.20
20337;DHT22;10326;53.660;10.200;2023-03-30T08:16:28;14.50;90.20
20337;DHT22;10326;53.660;10.200;2023-03-30T08:18:57;14.50;90.20
20337;DHT22;10326;53.660;10.200;2023-03-30T08:21:24;14.60;90.30
20337;DHT22;10326;53.660;10.200;2023-03-30T08:23:52;14.60;90.30
20337;DHT22;10326;53.660;10.200;2023-03-30T08:26:20;14.60;90.30
20337;DHT22;10326;53.660;10.200;2023-03-30T08:28:48;14.70;90.40
20337;DHT22;10326;53.660;10.200;2023-03-30T08:31:16;14.70;90.40
20337;DHT22;10326;53.660;10.200;2023-03-30T08:33:46;14.70;90.40
20337;DHT22;10326;53.660;10.200;2023-03-30T08:36:15;14.80;90.40
20337;DHT22;10326;53.660;10.200;2023-03-30T08:38:44;14.80;90.40
20337;DHT22;10326;53.660;10.200;2023-03-30T08:41:33;14.90;90.40
20337;DHT22;10326;53.660;10.200;2023-03-30T08:44:30;14.90;90.50
20337;DHT22;10326;53.660;10.200;2023-03-30T08:47:00;14.90;90.40
20337;DHT22;10326;53.660;10.200;2023-03-30T08:49:34;15.00;90.30
20337;DHT22;10326;53.660;10.200;2023-03-30T08:52:04;15.00;90.40
20337;DHT22;10326;53.660;10.200;2023-03-30T08:54:32;15.00;90.30
20337;DHT22;10326;53.660;10.200;2023-03-30T08:57:06;15.10;90.30
20337;DHT22;10326;53.660;10.200;2023-03-30T08:59:42;15.10;90.20
20337;DHT22;10326;53.660;10.200;2023-03-30T09:02:18;15.20;90.20
20337;DHT22;10326;53.660;10.200;2023-03-30T09:04:56;15.20;90.20
20337;DHT22;10326;53.660;10.200;2023-03-30T09:07:29;15.20;90.20
20337;DHT22;10326;53.660;10.200;2023-03-30T09:09:58;15.20;90.20
20337;DHT22;10326;53.660;10.200;2023-03-30T09:12:33;15.30;90.20
20337;DHT22;10326;53.660;10.200;2023-03-30T09:15:05;15.30;90.20
20337;DHT22;10326;53.660;10.200;2023-03-30T09:17:38;15.30;90.30
20337;DHT22;10326;53.660;10.200;2023-03-30T09:20:12;15.40;90.30
20337;DHT22;10326;53.660;10.200;2023-03-30T09:22:43;15.40;90.40
20337;DHT22;10326;53.660;10.200;2023-03-30T09:25:14;15.50;90.40
20337;DHT22;10326;53.660;10.200;2023-03-30T09:27:50;15.50;90.30
20337;DHT22;10326;53.660;10.200;2023-03-30T09:30:23;15.50;90.20
20337;DHT22;10326;53.660;10.200;2023-03-30T09:32:58;15.60;90.20
20337;DHT22;10326;53.660;10.200;2023-03-30T09:35:34;15.60;90.30
20337;DHT22;10326;53.660;10.200;2023-03-30T09:38:11;15.70;90.40
20337;DHT22;10326;53.660;10.200;2023-03-30T09:40:50;15.70;90.20
20337;DHT22;10326;53.660;10.200;2023-03-30T09:43:32;15.80;90.10
20337;DHT22;10326;53.660;10.200;2023-03-30T09:46:01;15.80;90.10
20337;DHT22;10326;53.660;10.200;2023-03-30T09:48:37;15.90;90.10
20337;DHT22;10326;53.660;10.200;2023-03-30T09:51:14;15.90;90.00
20337;DHT22;10326;53.660;10.200;2023-03-30T09:53:47;16.00;89.90
20337;DHT22;10326;53.660;10.200;2023-03-30T09:56:24;16.00;89.70
20337;DHT22;10326;53.660;10.200;2023-03-30T09:58:53;16.10;89.50
20337;DHT22;10326;53.660;10.200;2023-03-30T10:01:21;16.10;89.30
20337;DHT22;10326;53.660;10.200;2023-03-30T10:04:06;16.10;89.50
20337;DHT22;10326;53.660;10.200;2023-03-30T10:06:37;16.10;89.70
20337;DHT22;10326;53.660;10.200;2023-03-30T10:09:10;16.10;89.70
20337;DHT22;10326;53.660;10.200;2023-03-30T10:11:40;16.20;89.70
20337;DHT22;10326;53.660;10.200;2023-03-30T10:14:28;16.20;89.60
20337;DHT22;10326;53.660;10.200;2023-03-30T10:16:57;16.20;89.50
20337;DHT22;10326;53.660;10.200;2023-03-30T10:19:25;16.20;89.50
20337;DHT22;10326;53.660;10.200;2023-03-30T10:21:53;16.20;89.60
20337;DHT22;10326;53.660;10.200;2023-03-30T10:24:25;16.30;89.90
20337;DHT22;10326;53.660;10.200;2023-03-30T10:26:56;16.30;89.60
20337;DHT22;10326;53.660;10.200;2023-03-30T10:29:27;16.40;89.60
20337;DHT22;10326;53.660;10.200;2023-03-30T10:31:58;16.40;89.40
20337;DHT22;10326;53.660;10.200;2023-03-30T10:34:34;16.50;89.00
20337;DHT22;10326;53.660;10.200;2023-03-30T10:37:05;16.60;88.90
20337;DHT22;10326;53.660;10.200;2023-03-30T10:39:39;16.60;88.70
20337;DHT22;10326;53.660;10.200;2023-03-30T10:42:10;16.70;88.20
20337;DHT22;10326;53.660;10.200;2023-03-30T10:44:44;16.70;88.00
20337;DHT22;10326;53.660;10.200;2023-03-30T10:47:25;16.80;88.00
20337;DHT22;10326;53.660;10.200;2023-03-30T10:50:08;16.80;87.80
20337;DHT22;10326;53.660;10.200;2023-03-30T10:52:48;16.80;87.60
20337;DHT22;10326;53.660;10.200;2023-03-30T10:55:23;16.80;87.40
20337;DHT22;10326;53.660;10.200;2023-03-30T10:57:59;16.90;87.40
20337;DHT22;10326;53.660;10.200;2023-03-30T11:00:43;16.90;87.00
20337;DHT22;10326;53.660;10.200;2023-03-30T11:03:20;16.90;86.60
20337;DHT22;10326;53.660;10.200;2023-03-30T11:05:54;17.00;86.70
20337;DHT22;10326;53.660;10.200;2023-03-30T11:08:27;17.00;87.00
20337;DHT22;10326;53.660;10.200;2023-03-30T11:10:58;17.00;86.10
20337;DHT22;10326;53.660;10.200;2023-03-30T11:13:28;17.00;86.00
20337;DHT22;10326;53.660;10.200;2023-03-30T11:16:00;17.10;85.90
20337;DHT22;10326;53.660;10.200;2023-03-30T11:18:34;17.10;85.90
20337;DHT22;10326;53.660;10.200;2023-03-30T11:21:10;17.10;85.90
20337;DHT22;10326;53.660;10.200;2023-03-30T11:23:48;17.10;86.00
20337;DHT22;10326;53.660;10.200;2023-03-30T11:26:22;17.10;86.50
20337;DHT22;10326;53.660;10.200;2023-03-30T11:29:04;17.10;86.60
20337;DHT22;10326;53.660;10.200;2023-03-30T11:31:51;17.10;86.20
20337;DHT22;10326;53.660;10.200;2023-03-30T11:34:27;17.10;85.60
20337;DHT22;10326;53.660;10.200;2023-03-30T11:37:05;17.20;86.00
20337;DHT22;10326;53.660;10.200;2023-03-30T11:39:44;17.20;86.10
20337;DHT22;10326;53.660;10.200;2023-03-30T11:42:21;17.30;86.00
20337;DHT22;10326;53.660;10.200;2023-03-30T11:44:50;17.40;85.00
20337;DHT22;10326;53.660;10.200;2023-03-30T11:50:25;17.40;84.10
20337;DHT22;10326;53.660;10.200;2023-03-30T11:53:13;17.50;83.00
20337;DHT22;10326;53.660;10.200;2023-03-30T11:55:58;17.60;82.60
20337;DHT22;10326;53.660;10.200;2023-03-30T11:58:34;17.60;82.80
20337;DHT22;10326;53.660;10.200;2023-03-30T12:04:08;17.80;82.60
20337;DHT22;10326;53.660;10.200;2023-03-30T12:06:38;17.90;81.60
20337;DHT22;10326;53.660;10.200;2023-03-30T12:09:24;18.00;81.60
20337;DHT22;10326;53.660;10.200;2023-03-30T12:12:02;18.10;80.30
20337;DHT22;10326;53.660;10.200;2023-03-30T12:15:01;18.10;77.60
20337;DHT22;10326;53.660;10.200;2023-03-30T12:17:42;18.20;78.70
20337;DHT22;10326;53.660;10.200;2023-03-30T12:20:35;18.10;79.00
20337;DHT22;10326;53.660;10.200;2023-03-30T12:23:28;18.10;78.90
20337;DHT22;10326;53.660;10.200;2023-03-30T12:26:10;17.90;80.00
20337;DHT22;10326;53.660;10.200;2023-03-30T12:28:47;17.80;81.00
20337;DHT22;10326;53.660;10.200;2023-03-30T12:39:13;17.00;81.60
20337;DHT22;10326;53.660;10.200;2023-03-30T12:41:47;16.60;81.90
20337;DHT22;10326;53.660;10.200;2023-03-30T12:59:41;15.60;85.70
20337;DHT22;10326;53.660;10.200;2023-03-30T13:02:35;15.60;86.60
20337;DHT22;10326;53.660;10.200;2023-03-30T13:13:03;15.70;88.90
20337;DHT22;10326;53.660;10.200;2023-03-30T13:15:50;15.90;87.70
20337;DHT22;10326;53.660;10.200;2023-03-30T13:18:40;16.00;88.30
20337;DHT22;10326;53.660;10.200;2023-03-30T13:21:22;16.10;87.70
20337;DHT22;10326;53.660;10.200;2023-03-30T13:24:03;16.20;87.00
20337;DHT22;10326;53.660;10.200;2023-03-30T13:26:49;16.30;86.60
20337;DHT22;10326;53.660;10.200;2023-03-30T13:29:20;16.40;86.70
20337;DHT22;10326;53.660;10.200;2023-03-30T13:32:07;16.50;85.90
20337;DHT22;10326;53.660;10.200;2023-03-30T13:35:01;16.60;84.50
20337;DHT22;10326;53.660;10.200;2023-03-30T13:37:55;16.60;83.40
20337;DHT22;10326;53.660;10.200;2023-03-30T13:40:36;16.60;83.00
20337;DHT22;10326;53.660;10.200;2023-03-30T13:43:14;16.70;82.50
20337;DHT22;10326;53.660;10.200;2023-03-30T13:45:51;16.60;81.90
20337;DHT22;10326;53.660;10.200;2023-03-30T13:48:33;16.60;81.90
20337;DHT22;10326;53.660;10.200;2023-03-30T13:51:13;16.60;80.20
20337;DHT22;10326;53.660;10.200;2023-03-30T13:57:36;16.50;81.30
20337;DHT22;10326;53.660;10.200;2023-03-30T14:00:06;16.60;81.60
20337;DHT22;10326;53.660;10.200;2023-03-30T14:02:43;16.70;78.90
20337;DHT22;10326;53.660;10.200;2023-03-30T14:05:13;16.70;80.00
20337;DHT22;10326;53.660;10.200;2023-03-30T14:07:45;16.70;79.20
20337;DHT22;10326;53.660;10.200;2023-03-30T14:10:15;16.80;78.90
20337;DHT22;10326;53.660;10.200;2023-03-30T14:12:46;16.80;78.80
20337;DHT22;10326;53.660;10.200;2023-03-30T14:15:16;16.80;78.10
20337;DHT22;10326;53.660;10.200;2023-03-30T14:17:47;16.70;77.90
20337;DHT22;10326;53.660;10.200;2023-03-30T14:20:29;16.70;77.00
20337;DHT22;10326;53.660;10.200;2023-03-30T14:23:05;16.70;76.70
20337;DHT22;10326;53.660;10.200;2023-03-30T14:25:37;16.70;77.20
20337;DHT22;10326;53.660;10.200;2023-03-30T14:28:11;16.70;77.00
20337;DHT22;10326;53.660;10.200;2023-03-30T14:30:48;16.70;75.90
20337;DHT22;10326;53.660;10.200;2023-03-30T14:33:25;16.70;73.20
20337;DHT22;10326;53.660;10.200;2023-03-30T14:35:56;16.60;75.20
20337;DHT22;10326;53.660;10.200;2023-03-30T14:38:25;16.60;74.70
20337;DHT22;10326;53.660;10.200;2023-03-30T14:40:55;16.60;75.60
20337;DHT22;10326;53.660;10.200;2023-03-30T14:43:24;16.60;75.70
20337;DHT22;10326;53.660;10.200;2023-03-30T14:46:37;16.50;75.50
20337;DHT22;10326;53.660;10.200;2023-03-30T14:49:13;16.50;75.20
20337;DHT22;10326;53.660;10.200;2023-03-30T14:51:51;16.60;75.10
20337;DHT22;10326;53.660;10.200;2023-03-30T14:54:32;16.50;75.20
20337;DHT22;10326;53.660;10.200;2023-03-30T15:01:11;16.50;75.40
20337;DHT22;10326;53.660;10.200;2023-03-30T15:04:23;16.60;75.30
20337;DHT22;10326;53.660;10.200;2023-03-30T15:06:59;16.60;73.70
20337;DHT22;10326;53.660;10.200;2023-03-30T15:09:36;16.60;75.50
20337;DHT22;10326;53.660;10.200;2023-03-30T15:12:17;16.60;75.60
20337;DHT22;10326;53.660;10.200;2023-03-30T15:15:16;16.60;75.60
20337;DHT22;10326;53.660;10.200;2023-03-30T15:17:47;16.70;75.20
20337;DHT22;10326;53.660;10.200;2023-03-30T15:20:16;16.70;75.20
20337;DHT22;10326;53.660;10.200;2023-03-30T15:22:47;16.70;75.10
20337;DHT22;10326;53.660;10.200;2023-03-30T15:25:18;16.70;74.60
20337;DHT22;10326;53.660;10.200;2023-03-30T15:27:53;16.70;75.20
20337;DHT22;10326;53.660;10.200;2023-03-30T15:30:27;16.70;74.40
20337;DHT22;10326;53.660;10.200;2023-03-30T15:32:56;16.70;74.20
20337;DHT22;10326;53.660;10.200;2023-03-30T15:35:26;16.70;74.60
20337;DHT22;10326;53.660;10.200;2023-03-30T15:38:01;16.70;74.90
20337;DHT22;10326;53.660;10.200;2023-03-30T15:40:33;16.70;76.00
20337;DHT22;10326;53.660;10.200;2023-03-30T15:43:12;16.60;76.40
20337;DHT22;10326;53.660;10.200;2023-03-30T15:45:42;16.60;76.90
20337;DHT22;10326;53.660;10.200;2023-03-30T15:48:15;16.50;77.10
20337;DHT22;10326;53.660;10.200;2023-03-30T15:50:47;16.40;77.60
20337;DHT22;10326;53.660;10.200;2023-03-30T15:53:29;16.40;78.10
20337;DHT22;10326;53.660;10.200;2023-03-30T15:56:03;16.30;78.50
20337;DHT22;10326;53.660;10.200;2023-03-30T15:58:32;16.20;78.70
20337;DHT22;10326;53.660;10.200;2023-03-30T16:01:01;16.10;79.50
20337;DHT22;10326;53.660;10.200;2023-03-30T16:03:35;16.10;80.30
20337;DHT22;10326;53.660;10.200;2023-03-30T16:06:06;16.00;80.60
20337;DHT22;10326;53.660;10.200;2023-03-30T16:08:37;16.00;80.70
20337;DHT22;10326;53.660;10.200;2023-03-30T16:11:08;16.00;80.80
20337;DHT22;10326;53.660;10.200;2023-03-30T16:13:46;15.90;80.90
20337;DHT22;10326;53.660;10.200;2023-03-30T16:16:14;15.90;81.50
20337;DHT22;10326;53.660;10.200;2023-03-30T16:18:43;15.90;81.30
20337;DHT22;10326;53.660;10.200;2023-03-30T16:21:11;15.90;81.40
20337;DHT22;10326;53.660;10.200;2023-03-30T16:23:39;15.90;81.60
20337;DHT22;10326;53.660;10.200;2023-03-30T16:26:08;15.90;81.80
20337;DHT22;10326;53.660;10.200;2023-03-30T16:28:36;15.90;81.90
20337;DHT22;10326;53.660;10.200;2023-03-30T16:31:06;15.90;81.70
20337;DHT22;10326;53.660;10.200;2023-03-30T16:33:38;15.90;81.60
20337;DHT22;10326;53.660;10.200;2023-03-30T16:36:06;15.90;81.50
20337;DHT22;10326;53.660;10.200;2023-03-30T16:38:33;15.90;81.40
20337;DHT22;10326;53.660;10.200;2023-03-30T16:41:02;15.90;81.50
20337;DHT22;10326;53.660;10.200;2023-03-30T16:43:30;15.90;81.50
20337;DHT22;10326;53.660;10.200;2023-03-30T16:45:58;15.90;81.50
20337;DHT22;10326;53.660;10.200;2023-03-30T16:48:25;15.90;81.40
20337;DHT22;10326;53.660;10.200;2023-03-30T16:50:53;15.90;81.60
20337;DHT22;10326;53.660;10.200;2023-03-30T16:53:22;15.80;81.40
20337;DHT22;10326;53.660;10.200;2023-03-30T16:55:50;15.80;81.30
20337;DHT22;10326;53.660;10.200;2023-03-30T16:58:18;15.80;81.40
20337;DHT22;10326;53.660;10.200;2023-03-30T17:00:47;15.70;81.30